createdAt,value
2022-07-29T00:02:16.027Z,41.31
2022-07-29T00:04:42.716Z,41.31
2022-07-29T00:07:09.446Z,41.58
2022-07-29T00:09:50.355Z,41.32
2022-07-29T00:12:25.282Z,41.85
2022-07-29T00:14:53.488Z,41.59
2022-07-29T00:17:20.061Z,41.69
2022-07-29T00:19:46.622Z,41.54
2022-07-29T00:22:13.170Z,41.35
2022-07-29T00:24:39.711Z,41.03
2022-07-29T00:27:07.143Z,41.14
2022-07-29T00:29:34.854Z,41.13
2022-07-29T00:32:02.647Z,40.97
2022-07-29T00:34:47.655Z,40.98
2022-07-29T00:37:14.165Z,41.07
2022-07-29T00:39:40.733Z,41.18
2022-07-29T00:42:07.440Z,41.14
2022-07-29T00:44:38.977Z,41.19
2022-07-29T00:47:05.860Z,41.55
2022-07-29T00:49:33.289Z,41.97
2022-07-29T00:52:03.185Z,42.26
2022-07-29T00:54:30.144Z,42.49
2022-07-29T00:56:59.334Z,42.82
2022-07-29T00:59:34.476Z,42.79
2022-07-29T01:02:03.379Z,42.46
2022-07-29T01:04:31.886Z,42.69
2022-07-29T01:06:59.590Z,42.49
2022-07-29T01:09:42.775Z,42.51
2022-07-29T01:12:17.597Z,42.52
2022-07-29T01:14:45.558Z,42.63
2022-07-29T01:17:18.784Z,42.82
2022-07-29T01:20:00.520Z,42.75
2022-07-29T01:22:43.508Z,42.73
2022-07-29T01:25:25.930Z,43.16
2022-07-29T01:28:00.862Z,44.75
2022-07-29T01:30:33.400Z,44.85
2022-07-29T01:33:04.087Z,45.43
2022-07-29T01:35:39.219Z,45.15
2022-07-29T01:38:20.573Z,45.42
2022-07-29T01:41:17.321Z,45.96
2022-07-29T01:43:59.157Z,45.72
2022-07-29T01:46:31.641Z,45.12
2022-07-29T01:49:07.004Z,45.25
2022-07-29T01:51:53.816Z,45.64
2022-07-29T01:54:38.271Z,45.88
2022-07-29T01:57:07.857Z,45.35
2022-07-29T01:59:37.177Z,45.96
2022-07-29T02:02:04.064Z,46.20
2022-07-29T02:04:33.141Z,45.95
2022-07-29T02:07:03.197Z,45.45
2022-07-29T02:09:31.147Z,45.40
2022-07-29T02:12:00.292Z,45.21
2022-07-29T02:14:32.181Z,45.41
2022-07-29T02:17:01.441Z,45.53
2022-07-29T02:19:30.011Z,45.43
2022-07-29T02:21:58.662Z,46.23
2022-07-29T02:24:26.894Z,46.33
2022-07-29T02:26:55.926Z,46.75
2022-07-29T02:29:24.526Z,46.56
2022-07-29T02:31:52.521Z,47.53
2022-07-29T02:34:21.683Z,47.48
2022-07-29T02:36:50.397Z,47.77
2022-07-29T02:39:18.625Z,48.20
2022-07-29T02:41:48.709Z,48.24
2022-07-29T02:44:18.610Z,48.14
2022-07-29T02:47:20.023Z,48.48
2022-07-29T02:50:09.331Z,48.49
2022-07-29T02:52:37.685Z,48.68
2022-07-29T02:55:19.564Z,48.32
2022-07-29T02:57:55.861Z,48.44
2022-07-29T03:00:28.205Z,48.26
2022-07-29T03:02:57.275Z,48.28
2022-07-29T03:05:24.660Z,48.28
2022-07-29T03:07:58.136Z,48.45
2022-07-29T03:10:27.215Z,48.29
2022-07-29T03:12:55.734Z,48.83
2022-07-29T03:15:23.364Z,48.50
2022-07-29T03:17:53.778Z,48.96
2022-07-29T03:20:20.718Z,48.98
2022-07-29T03:22:50.051Z,49.44
2022-07-29T03:25:18.716Z,49.82
2022-07-29T03:27:46.321Z,50.08
2022-07-29T03:30:22.007Z,50.47
2022-07-29T03:32:52.089Z,50.41
2022-07-29T03:35:20.383Z,50.40
2022-07-29T03:37:47.253Z,50.53
2022-07-29T03:40:19.144Z,50.18
2022-07-29T03:42:47.727Z,50.35
2022-07-29T03:45:19.066Z,50.64
2022-07-29T03:47:52.876Z,50.47
2022-07-29T03:50:22.755Z,50.46
2022-07-29T03:52:49.955Z,50.74
2022-07-29T03:55:17.289Z,51.20
2022-07-29T03:57:45.987Z,51.37
2022-07-29T04:00:13.234Z,51.15
2022-07-29T04:02:40.909Z,51.23
2022-07-29T04:05:13.084Z,51.32
2022-07-29T04:07:39.711Z,51.41
2022-07-29T04:10:06.911Z,51.33
2022-07-29T04:12:33.497Z,51.29
2022-07-29T04:15:00.045Z,51.43
2022-07-29T04:17:26.572Z,51.45
2022-07-29T04:19:53.120Z,51.98
2022-07-29T04:22:19.632Z,51.85
2022-07-29T04:24:46.219Z,51.51
2022-07-29T04:27:12.909Z,51.50
2022-07-29T04:29:56.603Z,51.45
2022-07-29T04:32:24.773Z,51.03
2022-07-29T04:34:51.490Z,50.94
2022-07-29T04:37:18.181Z,50.93
2022-07-29T04:39:44.731Z,50.24
2022-07-29T04:42:11.316Z,50.18
2022-07-29T04:44:39.453Z,49.65
2022-07-29T04:47:09.639Z,49.98
2022-07-29T04:49:38.986Z,49.91
2022-07-29T04:52:06.398Z,49.80
2022-07-29T04:54:33.056Z,49.85
2022-07-29T04:56:59.580Z,49.62
2022-07-29T04:59:27.581Z,49.15
2022-07-29T05:01:54.315Z,48.14
2022-07-29T05:04:21.120Z,48.39
2022-07-29T05:06:48.493Z,47.86
2022-07-29T05:09:15.145Z,48.07
2022-07-29T05:11:41.688Z,47.80
2022-07-29T05:14:08.218Z,47.25
2022-07-29T05:16:34.793Z,47.74
2022-07-29T05:19:01.684Z,47.68
2022-07-29T05:23:54.987Z,47.51
2022-07-29T05:26:21.562Z,46.93
2022-07-29T05:28:48.169Z,45.62
2022-07-29T05:31:15.581Z,45.63
2022-07-29T05:33:42.543Z,45.22
2022-07-29T05:36:09.622Z,45.37
2022-07-29T05:38:36.950Z,44.93
2022-07-29T05:41:04.461Z,44.64
2022-07-29T05:43:31.188Z,44.11
2022-07-29T05:45:58.088Z,42.93
2022-07-29T05:48:25.582Z,42.02
2022-07-29T05:50:52.316Z,42.86
2022-07-29T05:53:20.587Z,42.75
2022-07-29T05:55:49.744Z,42.68
2022-07-29T05:58:16.369Z,42.03
2022-07-29T06:00:42.963Z,41.42
2022-07-29T06:03:09.593Z,40.84
2022-07-29T06:05:36.288Z,39.89
2022-07-29T06:08:03.206Z,38.31
2022-07-29T06:10:29.877Z,37.62
2022-07-29T06:12:56.497Z,37.23
2022-07-29T06:15:23.159Z,37.69
2022-07-29T06:17:59.750Z,37.87
2022-07-29T06:20:31.983Z,37.24
2022-07-29T06:22:59.039Z,38.18
2022-07-29T06:25:25.706Z,38.10
2022-07-29T06:27:53.254Z,38.23
2022-07-29T06:30:19.832Z,38.43
2022-07-29T06:32:46.525Z,37.55
2022-07-29T06:35:37.862Z,37.91
2022-07-29T06:38:00.018Z,37.48
2022-07-29T06:40:46.183Z,36.11
2022-07-29T06:43:12.809Z,35.50
2022-07-29T06:45:42.045Z,34.57
2022-07-29T06:48:09.576Z,34.44
2022-07-29T06:50:36.435Z,33.94
2022-07-29T06:53:03.168Z,33.95
2022-07-29T06:55:29.747Z,33.68
2022-07-29T06:57:56.304Z,33.58
2022-07-29T07:00:23.018Z,33.83
2022-07-29T07:02:49.641Z,32.67
2022-07-29T07:05:16.269Z,32.84
2022-07-29T07:07:42.869Z,32.59
2022-07-29T07:10:09.686Z,31.47
2022-07-29T07:12:36.297Z,31.62
2022-07-29T07:15:03.288Z,30.45
2022-07-29T07:17:29.863Z,30.45
2022-07-29T07:19:56.420Z,30.52
2022-07-29T07:22:23.019Z,29.80
2022-07-29T07:24:49.581Z,29.71
2022-07-29T07:27:16.127Z,29.89
2022-07-29T07:29:44.472Z,30.50
2022-07-29T07:32:11.357Z,29.82
2022-07-29T07:34:38.958Z,30.09
2022-07-29T07:37:06.277Z,29.25
2022-07-29T07:39:32.937Z,29.96
2022-07-29T07:41:59.813Z,29.29
2022-07-29T07:44:26.473Z,28.51
2022-07-29T07:46:53.339Z,28.77
2022-07-29T07:49:21.591Z,28.08
2022-07-29T07:51:50.821Z,27.91
2022-07-29T07:54:20.517Z,27.50
2022-07-29T07:56:49.866Z,26.67
2022-07-29T07:59:19.598Z,27.21
2022-07-29T08:01:47.981Z,27.26
2022-07-29T08:04:27.295Z,26.65
2022-07-29T08:06:57.786Z,27.17
2022-07-29T08:09:29.875Z,27.19
2022-07-29T08:11:59.173Z,27.09
2022-07-29T08:14:26.070Z,27.64
2022-07-29T08:16:52.751Z,27.63
2022-07-29T08:19:19.592Z,28.31
2022-07-29T08:21:46.470Z,29.08
2022-07-29T08:24:31.634Z,28.13
2022-07-29T08:26:58.201Z,27.51
2022-07-29T08:29:24.962Z,26.23
2022-07-29T08:31:51.892Z,26.48
2022-07-29T08:34:18.821Z,25.73
2022-07-29T08:36:52.642Z,25.52
2022-07-29T08:39:19.358Z,26.24
2022-07-29T08:41:56.695Z,24.96
2022-07-29T08:44:29.602Z,24.33
2022-07-29T08:46:57.704Z,23.87
2022-07-29T08:49:24.435Z,23.78
2022-07-29T08:51:52.431Z,23.19
2022-07-29T08:54:20.759Z,22.65
2022-07-29T08:56:50.889Z,22.12
2022-07-29T08:59:21.857Z,22.01
2022-07-29T09:01:53.115Z,22.10
2022-07-29T09:04:21.984Z,22.55
2022-07-29T09:06:52.190Z,21.83
2022-07-29T09:09:18.909Z,21.61
2022-07-29T09:11:45.603Z,20.75
2022-07-29T09:14:14.377Z,19.64
2022-07-29T09:16:57.449Z,18.31
2022-07-29T09:19:27.077Z,17.98
2022-07-29T09:22:03.026Z,19.24
2022-07-29T09:24:45.359Z,18.74
2022-07-29T09:27:23.013Z,18.97
2022-07-29T09:30:11.556Z,17.40
2022-07-29T09:32:59.909Z,16.68
2022-07-29T09:35:27.248Z,17.93
2022-07-29T09:37:53.888Z,16.95
2022-07-29T09:40:26.015Z,15.95
2022-07-29T09:42:54.145Z,15.05
2022-07-29T09:45:48.336Z,14.74
2022-07-29T09:48:26.013Z,13.84
2022-07-29T09:50:53.479Z,13.46
2022-07-29T09:53:34.490Z,14.03
2022-07-29T09:56:01.789Z,13.31
2022-07-29T09:58:28.796Z,12.64
2022-07-29T10:00:56.618Z,12.45
2022-07-29T10:03:24.019Z,13.17
2022-07-29T10:06:10.865Z,12.00
2022-07-29T10:08:38.661Z,12.49
2022-07-29T10:11:11.596Z,11.14
2022-07-29T10:13:39.075Z,11.80
2022-07-29T10:16:06.793Z,12.04
2022-07-29T10:18:34.105Z,11.21
2022-07-29T10:21:02.090Z,10.13
2022-07-29T10:23:30.687Z,11.06
2022-07-29T10:26:14.009Z,10.74
2022-07-29T10:28:40.612Z,11.17
2022-07-29T10:31:14.727Z,11.12
2022-07-29T10:34:18.449Z,10.79
2022-07-29T10:37:01.051Z,12.49
2022-07-29T10:39:49.736Z,12.96
2022-07-29T10:42:33.915Z,14.97
2022-07-29T10:45:02.759Z,15.39
2022-07-29T10:47:31.760Z,15.40
2022-07-29T10:50:03.640Z,15.16
2022-07-29T10:52:53.510Z,14.61
2022-07-29T10:55:45.479Z,15.05
2022-07-29T10:58:19.008Z,14.42
2022-07-29T11:00:51.169Z,14.56
2022-07-29T11:03:52.207Z,16.09
2022-07-29T11:06:26.710Z,15.93
2022-07-29T11:09:25.786Z,16.05
2022-07-29T11:12:02.640Z,15.57
2022-07-29T11:14:59.934Z,16.07
2022-07-29T11:17:26.946Z,16.46
2022-07-29T11:20:32.073Z,15.35
2022-07-29T11:22:59.425Z,15.14
2022-07-29T11:25:42.581Z,14.85
2022-07-29T11:28:23.178Z,15.36
2022-07-29T11:30:54.504Z,14.89
2022-07-29T11:33:54.125Z,15.37
2022-07-29T11:36:16.883Z,14.44
2022-07-29T11:38:43.639Z,13.84
2022-07-29T11:41:21.383Z,14.66
2022-07-29T11:43:52.282Z,14.86
2022-07-29T11:46:47.740Z,15.27
2022-07-29T11:49:21.859Z,14.03
2022-07-29T11:51:55.996Z,13.92
2022-07-29T11:54:50.896Z,15.68
2022-07-29T11:57:22.696Z,16.69
2022-07-29T11:59:49.633Z,17.56
2022-07-29T12:02:37.304Z,18.02
2022-07-29T12:05:10.418Z,18.36
2022-07-29T12:07:39.314Z,17.26
2022-07-29T12:10:11.481Z,16.41
2022-07-29T12:12:52.572Z,16.72
2022-07-29T12:15:21.522Z,16.33
2022-07-29T12:17:49.433Z,16.06
2022-07-29T12:20:28.369Z,16.66
2022-07-29T12:22:56.883Z,17.05
2022-07-29T12:25:33.792Z,17.68
2022-07-29T12:28:02.715Z,18.25
2022-07-29T12:30:55.758Z,18.81
2022-07-29T12:33:25.250Z,18.49
2022-07-29T12:36:12.797Z,17.99
2022-07-29T12:38:44.027Z,17.29
2022-07-29T12:41:11.483Z,17.90
2022-07-29T12:43:38.099Z,18.50
2022-07-29T12:46:15.683Z,18.52
2022-07-29T12:48:44.620Z,18.74
2022-07-29T12:51:13.308Z,18.57
2022-07-29T12:53:40.145Z,19.08
2022-07-29T12:56:41.384Z,18.18
2022-07-29T12:59:12.786Z,18.48
2022-07-29T13:01:39.447Z,18.03
2022-07-29T13:04:06.275Z,18.17
2022-07-29T13:06:51.025Z,18.89
2022-07-29T13:09:20.027Z,18.36
2022-07-29T13:11:49.113Z,18.66
2022-07-29T13:14:38.821Z,18.60
2022-07-29T13:17:09.878Z,18.52
2022-07-29T13:19:45.540Z,19.17
2022-07-29T13:22:14.803Z,19.11
2022-07-29T13:25:02.932Z,19.48
2022-07-29T13:27:33.060Z,19.69
2022-07-29T13:30:01.364Z,20.01
2022-07-29T13:32:29.628Z,19.95
2022-07-29T13:34:57.931Z,20.80
2022-07-29T13:37:25.208Z,20.93
2022-07-29T13:39:53.380Z,20.18
2022-07-29T13:42:20.605Z,20.33
2022-07-29T13:44:47.251Z,20.99
2022-07-29T13:47:13.857Z,20.64
2022-07-29T13:49:40.485Z,20.61
2022-07-29T13:52:08.309Z,20.56
2022-07-29T13:54:42.084Z,20.71
2022-07-29T13:57:11.484Z,21.00
2022-07-29T13:59:38.297Z,20.92
2022-07-29T14:02:05.918Z,21.34
2022-07-29T14:04:33.378Z,21.84
2022-07-29T14:07:00.060Z,21.24
2022-07-29T14:09:41.084Z,21.99
2022-07-29T14:12:09.337Z,22.20
2022-07-29T14:14:37.315Z,21.95
2022-07-29T14:17:04.334Z,21.99
2022-07-29T14:19:32.918Z,21.77
2022-07-29T14:21:59.908Z,22.11
2022-07-29T14:24:26.823Z,21.96
2022-07-29T14:26:53.448Z,22.05
2022-07-29T14:29:20.089Z,21.12
2022-07-29T14:31:46.731Z,20.38
2022-07-29T14:34:13.413Z,20.64
2022-07-29T14:36:40.000Z,21.05
2022-07-29T14:39:06.572Z,21.48
2022-07-29T14:41:33.777Z,21.67
2022-07-29T14:44:02.894Z,21.77
2022-07-29T14:46:29.523Z,22.24
2022-07-29T14:48:56.224Z,22.56
2022-07-29T14:51:22.842Z,23.19
2022-07-29T14:53:49.428Z,23.61
2022-07-29T14:56:36.165Z,23.63
2022-07-29T14:59:02.732Z,23.14
2022-07-29T15:01:30.094Z,24.10
2022-07-29T15:03:59.706Z,24.18
2022-07-29T15:06:27.499Z,23.88
2022-07-29T15:08:54.820Z,23.97
2022-07-29T15:11:21.382Z,23.82
2022-07-29T15:13:47.937Z,23.17
2022-07-29T15:16:14.549Z,23.34
2022-07-29T15:18:41.214Z,23.30
2022-07-29T15:21:08.359Z,23.18
2022-07-29T15:23:38.486Z,23.25
2022-07-29T15:26:05.273Z,23.23
2022-07-29T15:28:31.974Z,23.04
2022-07-29T15:30:59.306Z,23.59
2022-07-29T15:33:26.541Z,23.88
2022-07-29T15:35:53.140Z,24.08
2022-07-29T15:38:19.739Z,23.97
2022-07-29T15:40:55.096Z,24.07
2022-07-29T15:43:21.632Z,24.39
2022-07-29T15:46:07.422Z,24.88
2022-07-29T15:48:34.258Z,24.48
2022-07-29T15:51:01.042Z,24.57
2022-07-29T15:53:27.743Z,24.15
2022-07-29T15:55:54.340Z,24.26
2022-07-29T15:58:21.096Z,23.80
2022-07-29T16:00:47.829Z,23.57
2022-07-29T16:03:14.807Z,23.83
2022-07-29T16:05:41.646Z,23.62
2022-07-29T16:08:08.531Z,23.75
2022-07-29T16:10:35.057Z,23.98
2022-07-29T16:13:01.722Z,24.32
2022-07-29T16:15:28.257Z,24.47
2022-07-29T16:17:54.835Z,24.86
2022-07-29T16:20:22.361Z,24.38
2022-07-29T16:22:49.236Z,24.80
2022-07-29T16:25:15.842Z,24.64
2022-07-29T16:27:42.523Z,25.10
2022-07-29T16:30:12.311Z,24.21
2022-07-29T16:32:39.740Z,24.02
2022-07-29T16:35:07.538Z,24.02
2022-07-29T16:37:36.436Z,24.07
2022-07-29T16:40:04.793Z,24.05
2022-07-29T16:42:46.011Z,24.43
2022-07-29T16:45:13.478Z,24.52
2022-07-29T16:47:40.510Z,24.51
2022-07-29T16:50:07.768Z,25.12
2022-07-29T16:52:34.428Z,25.36
2022-07-29T16:55:00.951Z,25.38
2022-07-29T16:57:27.508Z,25.74
2022-07-29T16:59:54.058Z,25.67
2022-07-29T17:02:20.684Z,26.48
2022-07-29T17:04:47.367Z,26.96
2022-07-29T17:07:14.196Z,26.66
2022-07-29T17:09:41.112Z,27.09
2022-07-29T17:12:08.019Z,27.80
2022-07-29T17:14:34.645Z,27.89
2022-07-29T17:17:02.491Z,27.82
2022-07-29T17:19:32.781Z,28.46
2022-07-29T17:22:12.987Z,28.10
2022-07-29T17:24:42.615Z,28.07
2022-07-29T17:27:10.239Z,28.13
2022-07-29T17:29:38.606Z,28.76
2022-07-29T17:32:07.423Z,28.39
2022-07-29T17:34:35.730Z,28.71
2022-07-29T17:37:02.329Z,28.60
2022-07-29T17:39:29.032Z,28.35
2022-07-29T17:41:55.731Z,27.75
2022-07-29T17:44:22.268Z,27.92
2022-07-29T17:46:48.972Z,28.03
2022-07-29T17:49:15.618Z,28.57
2022-07-29T17:51:42.213Z,28.53
2022-07-29T17:54:08.765Z,29.26
2022-07-29T17:56:35.423Z,28.97
2022-07-29T17:59:06.393Z,29.17
2022-07-29T18:01:33.725Z,28.73
2022-07-29T18:04:00.586Z,28.94
2022-07-29T18:06:27.162Z,28.73
2022-07-29T18:08:54.319Z,28.72
2022-07-29T18:11:21.685Z,29.24
2022-07-29T18:13:48.268Z,29.31
2022-07-29T18:16:15.040Z,29.30
2022-07-29T18:18:43.339Z,29.09
2022-07-29T18:21:09.980Z,29.60
2022-07-29T18:23:36.585Z,31.24
2022-07-29T18:26:03.376Z,34.67
2022-07-29T18:28:30.040Z,36.03
2022-07-29T18:30:57.840Z,35.91
2022-07-29T18:33:24.461Z,36.06
2022-07-29T18:36:10.821Z,36.77
2022-07-29T18:38:40.061Z,35.75
2022-07-29T18:41:06.876Z,35.10
2022-07-29T18:43:33.434Z,34.02
2022-07-29T18:46:00.005Z,33.78
2022-07-29T18:48:26.860Z,33.78
2022-07-29T18:50:53.496Z,33.93
2022-07-29T18:53:20.129Z,33.92
2022-07-29T18:55:46.700Z,33.95
2022-07-29T18:58:13.289Z,34.12
2022-07-29T19:00:39.818Z,34.23
2022-07-29T19:03:08.255Z,34.40
2022-07-29T19:05:34.955Z,34.44
2022-07-29T19:08:01.595Z,34.72
2022-07-29T19:10:28.303Z,34.52
2022-07-29T19:12:55.244Z,34.81
2022-07-29T19:15:21.797Z,35.01
2022-07-29T19:17:48.864Z,35.22
2022-07-29T19:20:15.906Z,35.62
2022-07-29T19:22:42.655Z,35.29
2022-07-29T19:25:10.012Z,35.36
2022-07-29T19:27:36.802Z,36.10
2022-07-29T19:30:06.389Z,35.62
2022-07-29T19:32:33.113Z,36.06
2022-07-29T19:35:18.231Z,35.99
2022-07-29T19:37:44.807Z,36.19
2022-07-29T19:40:12.517Z,36.53
2022-07-29T19:42:39.450Z,36.72
2022-07-29T19:45:06.539Z,37.04
2022-07-29T19:47:33.121Z,37.12
2022-07-29T19:50:00.628Z,37.10
2022-07-29T19:52:27.595Z,37.14
2022-07-29T19:54:54.355Z,37.50
2022-07-29T19:57:20.896Z,37.60
2022-07-29T19:59:47.482Z,38.31
2022-07-29T20:02:14.202Z,38.55
2022-07-29T20:04:42.698Z,38.26
2022-07-29T20:07:09.417Z,38.88
2022-07-29T20:09:36.289Z,38.81
2022-07-29T20:12:04.663Z,38.89
2022-07-29T20:14:31.194Z,39.02
2022-07-29T20:16:57.747Z,39.42
2022-07-29T20:19:24.428Z,39.39
2022-07-29T20:21:51.421Z,39.28
2022-07-29T20:24:19.333Z,39.72
2022-07-29T20:26:46.759Z,40.02
2022-07-29T20:29:13.617Z,39.93
2022-07-29T20:31:40.518Z,39.74
2022-07-29T20:34:07.114Z,39.73
2022-07-29T20:36:33.648Z,39.61
2022-07-29T20:39:00.323Z,40.27
2022-07-29T20:41:26.965Z,40.27
2022-07-29T20:43:53.491Z,40.29
2022-07-29T20:46:20.083Z,40.70
2022-07-29T20:48:47.256Z,40.42
2022-07-29T20:51:14.424Z,40.56
2022-07-29T20:53:41.109Z,40.84
2022-07-29T20:56:07.948Z,40.93
2022-07-29T20:58:36.231Z,41.33
2022-07-29T21:01:04.033Z,41.60
2022-07-29T21:03:30.690Z,41.35
2022-07-29T21:05:57.287Z,41.69
2022-07-29T21:08:24.023Z,41.84
2022-07-29T21:10:50.794Z,42.24
2022-07-29T21:13:18.589Z,42.07
2022-07-29T21:15:49.154Z,42.58
2022-07-29T21:18:32.896Z,42.30
2022-07-29T21:21:00.933Z,42.42
2022-07-29T21:23:28.025Z,42.53
2022-07-29T21:25:54.824Z,43.37
2022-07-29T21:28:27.660Z,43.28
2022-07-29T21:30:59.404Z,43.44
2022-07-29T21:33:28.103Z,44.14
2022-07-29T21:38:42.019Z,44.22
2022-07-29T21:41:12.190Z,44.30
2022-07-29T21:43:41.737Z,44.27
2022-07-29T21:46:09.340Z,44.79
2022-07-29T21:48:36.015Z,44.73
2022-07-29T21:51:02.721Z,44.96
2022-07-29T21:53:29.384Z,45.03
2022-07-29T21:55:57.419Z,45.04
2022-07-29T21:58:24.673Z,45.43
2022-07-29T22:00:52.194Z,45.32
2022-07-29T22:03:18.963Z,45.51
2022-07-29T22:05:45.669Z,45.62
2022-07-29T22:08:12.919Z,45.56
2022-07-29T22:10:39.524Z,46.08
2022-07-29T22:13:06.554Z,46.14
2022-07-29T22:15:33.256Z,46.11
2022-07-29T22:18:00.428Z,46.29
2022-07-29T22:20:27.042Z,46.15
2022-07-29T22:22:53.995Z,46.31
2022-07-29T22:25:21.170Z,46.46
2022-07-29T22:27:47.865Z,46.63
2022-07-29T22:30:14.752Z,46.88
2022-07-29T22:32:41.939Z,47.26
2022-07-29T22:35:08.633Z,47.10
2022-07-29T22:37:35.555Z,47.31
2022-07-29T22:40:02.348Z,47.53
2022-07-29T22:42:29.029Z,47.74
2022-07-29T22:44:55.853Z,47.51
2022-07-29T22:47:46.242Z,47.53
2022-07-29T22:50:09.125Z,47.84
2022-07-29T22:52:35.731Z,47.84
2022-07-29T22:55:03.859Z,48.07
2022-07-29T22:57:30.465Z,48.05
2022-07-29T22:59:57.019Z,48.25
2022-07-29T23:02:23.733Z,48.11
2022-07-29T23:04:50.288Z,48.40
2022-07-29T23:07:17.537Z,48.06
2022-07-29T23:09:44.094Z,48.18
2022-07-29T23:12:10.673Z,47.89
2022-07-29T23:14:37.670Z,47.97
2022-07-29T23:17:05.177Z,48.25
2022-07-29T23:19:32.016Z,48.27
2022-07-29T23:21:58.802Z,48.41
2022-07-29T23:24:25.494Z,48.25
2022-07-29T23:26:52.098Z,48.52
2022-07-29T23:29:18.730Z,48.65
2022-07-29T23:31:48.134Z,48.88
2022-07-29T23:34:15.056Z,49.04
2022-07-29T23:36:42.288Z,48.91
2022-07-29T23:39:13.225Z,49.24
2022-07-29T23:41:40.001Z,49.25
2022-07-29T23:44:06.823Z,49.11
2022-07-29T23:46:33.763Z,49.18
2022-07-29T23:49:00.520Z,49.20
2022-07-29T23:51:28.973Z,48.96
2022-07-29T23:53:55.818Z,49.33
2022-07-29T23:56:22.611Z,49.36
2022-07-29T23:58:49.199Z,49.44
